Latest Weather Observations for Tasman Island

IDT60901

Issued at 2:51 pm EST Saturday 30 May 2015 (issued every 10 minutes, with the page automatically refreshed every 10 minutes)

About weather observations | Map of Hobart area stations | Latest observations for Hobart area | Other Formats
Station Details ID: 094155 Name: TASMAN ISLAND Lat: -43.24 Lon: 148.00 Height: 240.0 m
Data from the previous 72 hours. | See also: Recent months at Tasman Island
Date/Time
EST
Tmp

°C
App
Tmp
°C
Dew
Point
°C
Rel
Hum
%
Delta-T

°C
Wind Press
QNH
hPa
Press
MSL
hPa
Rain
since
9 am
mm
Dir
 
Spd
km/h
Gust
km/h
Spd
kts
Gust
kts
30/02:30pm 8.9 3.8 4.3 73 2.1 WNW 20 43 11 23 999.1 999.1 0.8
30/02:02pm 9.0 2.3 5.4 78 1.6 NW 30 48 16 26 999.4 999.4 0.8
30/02:00pm 9.2 2.1 5.6 78 1.7 NW 32 48 17 26 999.5 999.5 0.8
30/01:53pm 9.0 2.7 5.7 80 1.5 NW 28 54 15 29 999.3 999.3 0.8
30/01:30pm 8.5 2.1 5.4 81 1.4 WNW 28 63 15 34 999.1 999.1 0.8
30/01:00pm 10.8 -0.3 6.4 74 2.1 NW 54 98 29 53 998.0 998.0 0.2
30/12:59pm 10.8 -1.2 6.4 74 2.1 NW 59 98 32 53 997.8 997.8 0.2
30/12:30pm 13.9 1.0 3.9 51 4.6 WNW 61 89 33 48 996.9 997.0 0.0
30/12:29pm 13.9 0.9 3.7 50 4.7 WNW 61 89 33 48 996.7 996.8 0.0
30/12:27pm 13.9 1.4 3.9 51 4.6 WNW 59 91 32 49 996.7 996.8 0.0
30/12:19pm 13.9 4.3 4.5 53 4.4 NW 44 91 24 49 996.9 997.0 0.0
30/12:00pm 13.5 4.2 4.9 56 4.1 NW 43 65 23 35 997.9 997.9 0.0
30/11:30am 13.1 4.7 5.5 60 3.6 NW 39 69 21 37 998.6 998.6 0.0
30/11:00am 12.7 5.3 5.1 60 3.6 NNW 33 67 18 36 999.6 999.6 0.0
30/10:58am 12.9 6.1 5.1 59 3.7 NNW 30 67 16 36 999.5 999.5 0.0
30/10:39am 12.4 6.0 5.3 62 3.3 NNW 28 46 15 25 999.9 1000.0 0.0
30/10:30am 11.9 6.7 5.5 65 3.0 N 22 46 12 25 1000.2 1000.3 0.0
30/10:08am 11.7 5.0 5.8 67 2.8 N 30 50 16 27 1000.8 1000.9 0.0
30/10:00am 11.5 3.9 5.8 68 2.7 N 35 50 19 27 1001.0 1001.1 0.0
30/09:32am 10.8 2.9 6.0 72 2.3 N 37 57 20 31 1001.8 1001.8 0.0
30/09:30am 10.7 2.8 6.1 73 2.2 N 37 54 20 29 1001.9 1001.9 0.0
30/09:00am 10.3 3.3 5.9 74 2.1 N 32 54 17 29 1003.0 1003.0 0.0
30/08:53am 10.2 2.6 5.6 73 2.1 N 35 54 19 29 1003.2 1003.3 0.0
30/08:30am 9.9 1.9 5.5 74 2.0 N 37 52 20 28 1003.2 1003.3 0.0
30/08:05am 10.2 2.4 5.0 70 2.4 NNW 35 76 19 41 1003.7 1003.8 0.0
30/08:01am 10.1 2.8 5.3 72 2.2 NNW 33 52 18 28 1004.0 1004.1 0.0
30/08:00am 10.0 2.6 5.2 72 2.2 NNW 33 52 18 28 1003.8 1003.9 0.0
30/07:30am 10.4 2.6 5.0 69 2.5 NNW 35 59 19 32 1004.1 1004.2 0.0
30/07:00am 10.2 1.2 4.6 68 2.6 NNW 41 65 22 35 1004.4 1004.5 0.0
30/06:31am 10.3 0.9 4.2 66 2.7 NW 43 63 23 34 1004.8 1004.9 0.0
30/06:30am 10.3 1.2 4.2 66 2.7 NW 41 57 22 31 1004.9 1005.0 0.0
30/06:00am 10.3 1.3 4.5 67 2.6 NW 41 59 22 32 1005.1 1005.2 0.0
30/05:31am 10.4 -0.4 4.3 66 2.8 NW 50 72 27 39 1005.1 1005.2 0.0
30/05:30am 10.4 -0.4 4.3 66 2.8 NW 50 69 27 37 1005.1 1005.2 0.0
30/05:00am 10.4 0.8 4.3 66 2.8 NW 44 65 24 35 1005.6 1005.7 0.0
30/04:30am 10.3 0.7 4.2 66 2.7 NW 44 72 24 39 1006.2 1006.2 0.0
30/04:02am 10.5 0.9 4.4 66 2.8 NW 44 69 24 37 1006.4 1006.4 0.0
30/04:00am 10.3 0.9 4.5 67 2.6 NW 43 59 23 32 1006.5 1006.5 0.0
30/03:30am 10.4 1.0 4.3 66 2.8 NW 43 69 23 37 1007.1 1007.2 0.0
30/03:00am 10.4 0.4 4.5 67 2.7 NW 46 67 25 36 1007.2 1007.3 0.0
30/02:30am 10.3 0.9 4.5 67 2.6 NW 43 67 23 36 1007.6 1007.7 0.0
30/02:00am 10.7 0.7 4.2 64 2.9 NW 46 65 25 35 1007.7 1007.8 0.0
30/01:33am 10.3 0.3 4.2 66 2.7 NW 46 65 25 35 1008.2 1008.3 0.0
30/01:30am 10.2 -0.2 4.1 66 2.7 NW 48 65 26 35 1008.3 1008.4 0.0
30/01:00am 10.6 0.6 4.1 64 2.9 NW 46 67 25 36 1008.4 1008.5 0.0
30/12:30am 10.2 1.1 3.9 65 2.8 NW 41 59 22 32 1009.1 1009.2 0.0
30/12:00am 9.9 -0.1 4.1 67 2.6 NW 46 67 25 36 1009.2 1009.3 0.0
 
Date/Time
EST
Tmp

°C
App
Tmp
°C
Dew
Point
°C
Rel
Hum
%
Delta-T

°C
Wind Press
QNH
hPa
Press
MSL
hPa
Rain
since
9 am
mm
Dir
 
Spd
km/h
Gust
km/h
Spd
kts
Gust
kts
29/11:30pm 9.6 1.2 3.6 66 2.6 NW 37 59 20 32 1009.6 1009.7 0.0
29/11:00pm 9.5 0.3 3.5 66 2.6 NW 41 63 22 34 1009.7 1009.8 0.0
29/10:30pm 9.5 -0.3 3.3 65 2.7 NW 44 63 24 34 1009.8 1009.9 0.0
29/10:00pm 9.4 -0.4 3.2 65 2.7 NW 44 65 24 35 1010.1 1010.1 0.0
29/09:53pm 9.4 -0.4 3.2 65 2.7 NW 44 65 24 35 1010.3 1010.4 0.0
29/09:30pm 9.2 -0.1 3.2 66 2.6 NW 41 59 22 32 1010.5 1010.6 0.0
29/09:00pm 9.4 -0.4 3.2 65 2.7 NW 44 67 24 36 1010.4 1010.5 0.0
29/08:30pm 8.9 0.4 2.9 66 2.6 NW 37 63 20 34 1010.3 1010.4 0.0
29/08:00pm 8.9 0.8 3.1 67 2.5 NNW 35 54 19 29 1010.5 1010.6 0.0
29/07:33pm 9.1 -0.2 2.9 65 2.7 NNW 41 59 22 32 1010.5 1010.6 0.0
29/07:30pm 9.1 -0.6 2.9 65 2.7 NW 43 59 23 32 1010.4 1010.5 0.0
29/07:00pm 9.0 0.1 3.0 66 2.6 NNW 39 57 21 31 1010.4 1010.5 0.0
29/06:40pm 9.0 0.5 3.2 67 2.5 NNW 37 56 20 30 1010.4 1010.5 0.0
29/06:30pm 9.1 0.2 3.1 66 2.6 NW 39 56 21 30 1010.5 1010.6 0.0
29/06:01pm 8.9 0.7 2.9 66 2.6 NW 35 54 19 29 1010.5 1010.6 0.0
29/06:00pm 8.8 0.6 2.8 66 2.6 NW 35 52 19 28 1010.5 1010.6 0.0
29/05:30pm 9.3 0.3 2.6 63 2.9 NW 39 56 21 30 1010.5 1010.6 0.0
29/05:00pm 9.2 0.3 2.8 64 2.8 NW 39 52 21 28 1010.4 1010.5 0.0
29/04:30pm 9.3 0.6 2.2 61 3.0 NW 37 56 20 30 1010.4 1010.5 0.0
29/04:24pm 9.3 0.7 2.4 62 3.0 NW 37 56 20 30 1010.3 1010.4 0.0
29/04:00pm 9.4 3.3 2.9 64 2.8 NW 24 33 13 18 1010.6 1010.7 0.0
29/03:30pm 10.2 4.9 3.0 61 3.2 NW 20 30 11 16 1010.6 1010.7 0.0
29/03:00pm 9.9 2.6 2.3 59 3.3 NW 30 46 16 25 1010.3 1010.4 0.0
29/02:30pm 10.1 2.7 2.0 57 3.5 WNW 30 46 16 25 1010.1 1010.1 0.0
29/02:00pm 10.2 4.0 2.1 57 3.5 WNW 24 39 13 21 1010.3 1010.4 0.0
29/01:30pm 9.8 2.9 2.4 60 3.2 WNW 28 44 15 24 1010.1 1010.1 0.0
29/01:00pm 9.8 3.2 1.9 58 3.4 NW 26 37 14 20 1010.2 1010.3 0.0
29/12:30pm 9.3 4.8 2.4 62 3.0 WNW 15 35 8 19 1009.9 1010.0 0.0
29/12:00pm 9.0 3.2 2.1 62 2.9 WNW 22 43 12 23 1009.6 1009.7 0.0
29/11:51am 8.8 1.3 1.5 60 3.0 WNW 30 50 16 27 1009.7 1009.8 0.0
29/11:30am 8.4 0.6 1.6 62 2.8 WNW 32 50 17 27 1009.8 1009.9 0.0
29/11:01am 8.1 1.0 1.5 63 2.7 WNW 28 56 15 30 1009.9 1010.0 0.0
29/11:00am 8.1 1.0 1.3 62 2.8 WNW 28 56 15 30 1009.9 1010.0 0.0
29/10:49am 7.9 -2.1 1.3 63 2.7 NW 43 61 23 33 1009.8 1009.9 0.0
29/10:30am 7.7 -1.1 1.3 64 2.6 WNW 37 52 20 28 1010.2 1010.3 0.0
29/10:00am 7.3 -1.4 1.8 68 2.3 NW 37 57 20 31 1009.8 1009.9 0.0
29/09:30am 7.2 -1.6 1.5 67 2.3 NW 37 61 20 33 1009.5 1009.6 0.0
29/09:00am 6.8 -1.1 1.1 67 2.3 WNW 32 59 17 32 1009.4 1009.5 2.4
29/08:30am 6.6 -0.5 1.5 70 2.1 WNW 28 48 15 26 1009.5 1009.6 2.4
29/08:28am 6.6 -0.5 1.5 70 2.1 WNW 28 48 15 26 1009.5 1009.6 2.4
29/08:00am 6.1 -0.1 2.0 75 1.7 WNW 24 43 13 23 1009.4 1009.5 2.4
29/07:30am 5.9 0.9 1.4 73 1.8 NW 17 43 9 23 1008.5 1008.6 2.4
29/07:00am 5.9 1.0 1.8 75 1.7 NW 17 43 9 23 1007.8 1007.9 2.4
29/06:30am 5.5 1.8 2.3 80 1.3 WSW 11 33 6 18 1007.4 1007.5 2.4
29/06:00am 5.5 0.2 3.2 85 1.0 WNW 20 44 11 24 1007.0 1007.1 2.4
29/05:30am 5.0 -2.8 3.0 87 0.8 WNW 33 56 18 30 1006.6 1006.6 2.4
29/05:00am 4.9 -4.0 2.9 87 0.8 WNW 39 59 21 32 1006.5 1006.5 2.4
29/04:40am 4.5 -1.3 2.2 85 0.9 NW 22 54 12 29 1006.4 1006.4 2.4
29/04:30am 5.5 1.0 2.0 78 1.4 ESE 15 50 8 27 1006.3 1006.3 2.4
29/04:00am 6.7 0.2 2.4 74 1.8 NW 26 52 14 28 1006.0 1006.0 2.4
29/03:40am 6.9 -2.9 2.0 71 2.0 WNW 43 63 23 34 1005.0 1005.1 2.4
29/03:30am 6.9 -3.6 1.6 69 2.2 NW 46 61 25 33 1005.2 1005.3 2.4
29/03:00am 7.0 -1.0 1.9 70 2.1 NW 33 56 18 30 1005.3 1005.4 2.4
29/02:30am 7.4 -2.0 2.3 70 2.1 WNW 41 61 22 33 1005.1 1005.2 2.4
29/02:00am 7.8 -0.9 1.9 66 2.5 WNW 37 69 20 37 1004.5 1004.6 2.4
29/01:30am 7.7 0.8 2.4 69 2.2 WNW 28 59 15 32 1004.4 1004.5 2.4
29/01:27am 7.8 2.1 2.9 71 2.1 WNW 22 54 12 29 1004.5 1004.6 2.4
29/01:19am 7.7 1.2 2.6 70 2.2 WNW 26 50 14 27 1004.5 1004.6 2.4
29/01:00am 7.7 -1.7 2.6 70 2.2 WNW 41 67 22 36 1004.2 1004.3 2.4
29/12:30am 8.1 -1.9 2.1 66 2.5 NW 44 72 24 39 1004.3 1004.4 2.2
29/12:00am 8.1 0.3 2.6 68 2.4 WNW 33 59 18 32 1004.3 1004.4 2.2
 
Date/Time
EST
Tmp

°C
App
Tmp
°C
Dew
Point
°C
Rel
Hum
%
Delta-T

°C
Wind Press
QNH
hPa
Press
MSL
hPa
Rain
since
9 am
mm
Dir
 
Spd
km/h
Gust
km/h
Spd
kts
Gust
kts
28/11:40pm 7.9 -0.6 3.0 71 2.1 WNW 37 57 20 31 1004.3 1004.4 2.2
28/11:30pm 8.0 0.5 3.3 72 2.0 WNW 32 44 17 24 1004.6 1004.7 2.2
28/11:00pm 8.1 0.7 3.8 74 1.9 NW 32 43 17 23 1004.8 1004.9 2.2
28/10:30pm 8.4 0.5 4.4 76 1.8 NW 35 48 19 26 1004.9 1005.0 2.2
28/10:00pm 8.3 0.8 4.7 78 1.6 NW 33 48 18 26 1004.9 1005.0 2.2
28/09:30pm 8.5 0.7 4.7 77 1.7 NW 35 50 19 27 1004.8 1004.9 2.2
28/09:21pm 8.4 1.6 5.3 81 1.4 NW 30 48 16 26 1004.8 1004.9 2.2
28/09:00pm 8.1 3.4 6.1 87 0.9 NW 20 32 11 17 1005.1 1005.2 2.2
28/08:30pm 9.3 5.9 5.9 79 1.6 WNW 13 20 7 11 1005.2 1005.3 0.6
28/08:00pm 9.1 3.9 5.7 79 1.6 NW 22 32 12 17 1004.9 1005.0 0.6
28/07:30pm 9.0 4.2 5.6 79 1.6 WNW 20 30 11 16 1004.7 1004.8 0.6
28/07:00pm 8.9 4.1 5.6 80 1.5 WNW 20 30 11 16 1004.2 1004.3 0.6
28/06:30pm 9.3 6.7 5.9 79 1.6 NW 9 33 5 18 1004.3 1004.4 0.6
28/06:00pm 10.0 7.3 7.3 83 1.3 NW 11 30 6 16 1004.6 1004.7 0.6
28/05:30pm 11.2 6.3 6.7 74 2.2 WSW 22 57 12 31 1004.0 1004.1 0.4
28/05:26pm 11.8 5.0 6.9 72 2.4 WNW 32 57 17 31 1004.1 1004.2 0.4
28/05:16pm 12.5 4.2 5.9 64 3.1 NW 39 57 21 31 1003.7 1003.8 0.0
28/05:00pm 12.7 4.3 5.6 62 3.4 NW 39 54 21 29 1003.5 1003.6 0.0
28/04:44pm 12.6 5.0 6.0 64 3.2 NW 35 56 19 30 1003.4 1003.5 0.0
28/04:30pm 12.1 5.1 6.2 67 2.8 NW 32 44 17 24 1003.3 1003.4 0.0
28/04:06pm 12.6 6.3 5.8 63 3.2 NW 28 46 15 25 1003.1 1003.1 0.0
28/04:00pm 12.8 5.8 5.9 63 3.3 NW 32 46 17 25 1003.2 1003.3 0.0
28/03:47pm 12.8 6.7 6.4 65 3.1 NW 28 46 15 25 1003.3 1003.4 0.0
28/03:30pm 12.7 6.6 6.7 67 2.9 NW 28 43 15 23 1003.5 1003.6 0.0
28/03:06pm 12.6 6.7 7.5 71 2.5 NW 28 50 15 27 1003.7 1003.8 0.0
28/03:00pm 12.8 8.0 7.5 70 2.6 NW 22 33 12 18 1003.6 1003.7 0.0
28/02:37pm 12.8 5.5 7.3 69 2.7 NW 35 54 19 29 1003.6 1003.7 0.0
28/02:30pm 12.8 4.8 7.3 69 2.7 NW 39 54 21 29 1003.8 1003.9 0.0
28/02:14pm 13.0 7.0 7.2 68 2.8 NW 28 50 15 27 1004.2 1004.3 0.0
28/02:00pm 13.6 9.4 8.2 70 2.7 N 20 30 11 16 1004.4 1004.5 0.0
28/01:30pm 14.4 10.1 7.9 65 3.3 N 20 32 11 17 1004.5 1004.6 0.0
28/01:00pm 14.9 11.5 7.5 61 3.7 NW 15 30 8 16 1005.2 1005.3 0.0
28/12:36pm 14.0 7.8 7.8 66 3.1 N 30 50 16 27 1005.3 1005.4 0.0
28/12:30pm 14.0 7.4 8.4 69 2.8 N 33 48 18 26 1005.4 1005.5 0.0
28/12:00pm 14.6 9.5 7.6 63 3.5 N 24 43 13 23 1006.2 1006.2 0.0
28/11:30am 14.8 10.5 6.9 59 3.9 N 19 32 10 17 1006.9 1007.0 0.0
28/11:01am 14.3 8.1 6.2 58 3.9 NNW 28 56 15 30 1007.6 1007.7 0.0
28/11:00am 14.3 8.6 6.6 60 3.8 NNW 26 43 14 23 1007.6 1007.7 0.0
28/10:30am 14.1 7.8 5.7 57 4.0 NNW 28 48 15 26 1008.2 1008.3 0.0
28/10:14am 14.0 7.0 5.9 58 3.9 NNW 32 50 17 27 1008.2 1008.3 0.0
28/10:00am 13.8 6.8 6.2 60 3.7 NNW 32 44 17 24 1008.3 1008.4 0.0
28/09:30am 13.4 6.2 5.8 60 3.6 NNW 33 46 18 25 1008.3 1008.4 0.0
28/09:01am 13.0 4.8 4.9 58 3.8 NW 37 57 20 31 1008.3 1008.4 0.0
28/09:00am 12.9 4.8 5.1 59 3.7 NNW 37 54 20 29 1008.3 1008.4 0.0
28/08:30am 12.6 3.3 5.1 60 3.5 NW 43 61 23 33 1008.4 1008.5 0.0
28/08:10am 12.3 3.0 5.2 62 3.3 NW 43 61 23 33 1008.3 1008.4 0.0
28/08:00am 12.2 3.0 5.6 64 3.1 NW 43 59 23 32 1008.4 1008.5 0.0
28/07:37am 12.0 4.0 5.6 65 3.0 NNW 37 57 20 31 1008.6 1008.7 0.0
28/07:30am 11.9 4.7 5.8 66 2.9 NNW 33 48 18 26 1008.6 1008.7 0.0
28/07:00am 11.6 5.6 6.9 73 2.3 NNW 28 41 15 22 1008.9 1009.0 0.0
28/06:30am 11.6 5.0 7.9 78 1.8 NNW 32 44 17 24 1008.6 1008.7 0.0
28/06:11am 11.4 4.4 8.4 82 1.5 N 35 54 19 29 1008.7 1008.8 0.0
28/06:00am 11.1 4.3 9.2 88 1.0 N 35 44 19 24 1008.6 1008.7 0.0
28/05:30am 11.1 5.1 8.8 86 1.2 N 30 39 16 21 1009.0 1009.1 0.0
28/05:00am 11.6 6.0 8.6 82 1.5 N 28 35 15 19 1009.3 1009.4 0.0
28/04:30am 11.9 6.6 8.4 79 1.8 NNW 26 41 14 22 1009.8 1009.9 0.0
28/04:00am 11.8 5.6 9.5 86 1.2 N 32 41 17 22 1009.7 1009.8 0.0
28/03:30am 11.5 5.5 10.2 92 0.7 N 32 41 17 22 1010.1 1010.1 0.0
28/03:00am 11.6 5.4 10.2 91 0.7 N 33 44 18 24 1010.2 1010.3 0.0
28/02:30am 11.9 5.3 8.4 79 1.8 NNW 33 44 18 24 1010.4 1010.5 0.0
28/02:00am 11.8 6.5 8.3 79 1.7 N 26 33 14 18 1010.6 1010.7 0.0
28/01:30am 12.1 6.8 8.6 79 1.8 N 26 39 14 21 1010.8 1010.9 0.0
28/01:00am 12.9 6.9 8.8 76 2.1 NNW 30 41 16 22 1011.4 1011.5 0.0
28/12:30am 13.3 6.3 8.6 73 2.4 NNW 35 57 19 31 1011.3 1011.4 0.0
28/12:00am 13.7 7.9 7.9 68 2.9 NNW 28 46 15 25 1011.4 1011.5 0.0
 
Date/Time
EST
Tmp

°C
App
Tmp
°C
Dew
Point
°C
Rel
Hum
%
Delta-T

°C
Wind Press
QNH
hPa
Press
MSL
hPa
Rain
since
9 am
mm
Dir
 
Spd
km/h
Gust
km/h
Spd
kts
Gust
kts
27/11:41pm 14.1 5.7 7.4 64 3.3 NNW 41 59 22 32 1011.4 1011.5 0.0
27/11:30pm 13.8 6.9 7.1 64 3.3 NNW 33 50 18 27 1011.3 1011.4 0.0
27/11:00pm 14.0 4.5 6.8 62 3.5 NNW 46 69 25 37 1011.0 1011.1 0.0
27/10:44pm 13.7 4.3 7.2 65 3.2 NNW 46 76 25 41 1010.8 1010.9 0.0
27/10:30pm 12.8 6.3 8.1 73 2.4 NNW 32 52 17 28 1011.2 1011.3 0.0
27/10:21pm 12.9 7.2 8.2 73 2.4 N 28 50 15 27 1011.3 1011.4 0.0
27/10:00pm 13.0 8.4 8.1 72 2.5 N 22 41 12 22 1011.4 1011.5 0.0
27/09:47pm 12.8 7.0 8.1 73 2.4 N 28 50 15 27 1011.7 1011.8 0.0
27/09:30pm 12.9 7.5 8.0 72 2.4 N 26 44 14 24 1011.7 1011.8 0.0
27/09:00pm 13.1 7.6 7.5 69 2.8 NNW 26 56 14 30 1011.9 1012.0 0.0
27/08:45pm 13.1 7.2 7.3 68 2.9 NNW 28 57 15 31 1012.0 1012.1 0.0
27/08:30pm 12.9 7.4 7.6 70 2.6 NNW 26 43 14 23 1012.0 1012.1 0.0
27/08:00pm 12.8 6.3 8.1 73 2.4 N 32 46 17 25 1012.2 1012.3 0.0
27/07:30pm 12.5 5.1 8.4 76 2.1 N 37 52 20 28 1012.0 1012.1 0.0
27/07:00pm 12.8 4.2 8.3 74 2.3 N 43 52 23 28 1012.0 1012.1 0.0
27/06:30pm 11.9 4.4 9.5 85 1.2 N 39 50 21 27 1012.1 1012.2 0.0
27/06:00pm 12.1 4.6 9.3 83 1.4 N 39 50 21 27 1012.1 1012.2 0.0
27/05:30pm 11.9 5.2 9.5 85 1.2 N 35 44 19 24 1012.5 1012.6 0.0
27/05:00pm 11.9 3.6 9.3 84 1.3 N 43 52 23 28 1012.4 1012.5 0.0
27/04:30pm 11.8 3.5 9.5 86 1.2 N 43 50 23 27 1012.6 1012.7 0.0
27/04:00pm 12.1 3.8 9.3 83 1.4 N 43 57 23 31 1012.8 1012.9 0.0
27/03:30pm 12.1 3.1 8.8 80 1.7 N 46 57 25 31 1012.9 1013.0 0.0
27/03:00pm 12.2 3.6 8.9 80 1.7 N 44 57 24 31 1013.0 1013.1 0.0

Latest Capital City Observations: Canberra | Sydney | Melbourne | Brisbane | Adelaide | Perth | Hobart | Darwin

Other Formats:

Comma delimited format used in spreadsheet applications
http://www.bom.gov.au/fwo/IDT60901/IDT60901.95986.axf

JavaScript Object Notation format (JSON) in row-major order
http://www.bom.gov.au/fwo/IDT60901/IDT60901.95986.json